createdAt,value
2022-08-22T00:07:10.260Z,0
2022-08-22T00:16:47.345Z,0
2022-08-22T00:26:24.725Z,0
2022-08-22T00:45:38.780Z,0
2022-08-22T00:55:15.564Z,0
2022-08-22T01:24:07.140Z,0
2022-08-22T01:43:21.019Z,0
2022-08-22T01:52:57.946Z,0
2022-08-22T02:21:48.544Z,0
2022-08-22T02:31:25.079Z,0
2022-08-22T02:41:01.636Z,0
2022-08-22T02:50:38.263Z,0
2022-08-22T03:00:25.105Z,0
2022-08-22T03:09:52.004Z,0
2022-08-22T03:19:28.827Z,0
2022-08-22T03:29:05.859Z,0
2022-08-22T03:38:43.188Z,0
2022-08-22T03:48:20.013Z,0
2022-08-22T03:57:57.030Z,0
2022-08-22T04:07:33.823Z,0
2022-08-22T04:17:11.029Z,5.63
2022-08-22T04:26:48.338Z,16.88
2022-08-22T04:36:25.637Z,22.5
2022-08-22T04:55:39.999Z,50.63
2022-08-22T05:05:17.595Z,61.88
2022-08-22T05:24:32.214Z,84.38
2022-08-22T05:34:09.971Z,90
2022-08-22T05:43:49.798Z,101.25
2022-08-22T05:53:25.486Z,101.25
2022-08-22T06:03:03.152Z,118.13
2022-08-22T06:12:42.046Z,135
2022-08-22T06:22:18.879Z,146.25
2022-08-22T06:41:34.598Z,174.38
2022-08-22T06:51:12.179Z,191.25
2022-08-22T07:00:53.581Z,230.63
2022-08-22T07:20:06.220Z,253.13
2022-08-22T07:29:44.884Z,292.5
2022-08-22T07:39:22.826Z,258.75
2022-08-22T07:49:08.921Z,230.63
2022-08-22T07:58:38.098Z,219.38
2022-08-22T08:08:15.947Z,241.88
2022-08-22T08:27:32.839Z,281.25
2022-08-22T08:37:12.699Z,303.75
2022-08-22T08:46:55.350Z,281.25
2022-08-22T08:56:28.348Z,298.13
2022-08-22T09:06:07.565Z,444.38
2022-08-22T09:15:54.885Z,500.63
2022-08-22T09:25:28.730Z,523.13
2022-08-22T09:44:45.239Z,646.88
2022-08-22T09:54:31.316Z,1766.25
2022-08-22T10:04:19.270Z,2660.63
2022-08-22T10:14:04.381Z,2722.5
2022-08-22T10:23:49.582Z,2750.63
2022-08-22T10:33:33.178Z,3954.38
2022-08-22T10:43:16.442Z,3915
2022-08-22T10:52:32.037Z,3442.5
2022-08-22T11:02:30.816Z,3386.25
2022-08-22T11:21:50.960Z,3352.5
2022-08-22T11:31:31.606Z,3380.63
2022-08-22T11:41:03.734Z,3532.5
2022-08-22T11:50:42.161Z,3330
2022-08-22T12:00:16.240Z,2992.5
2022-08-22T12:09:59.074Z,1057.5
2022-08-22T12:19:18.327Z,1074.38
2022-08-22T12:38:39.576Z,1051.88
2022-08-22T12:48:22.812Z,2300.63
2022-08-22T12:58:01.359Z,2458.13
2022-08-22T13:07:44.844Z,2947.5
2022-08-22T13:17:23.947Z,1951.88
2022-08-22T13:26:51.619Z,1085.63
2022-08-22T13:36:22.033Z,911.25
2022-08-22T13:46:01.784Z,1411.88
2022-08-22T13:55:37.416Z,1102.5
2022-08-22T14:05:15.455Z,1091.25
2022-08-22T14:24:44.926Z,2154.38
2022-08-22T14:34:29.614Z,2221.88
2022-08-22T15:03:05.507Z,922.5
2022-08-22T15:12:34.495Z,708.75
2022-08-22T15:22:09.731Z,607.5
2022-08-22T15:31:46.544Z,517.5
2022-08-22T15:41:22.785Z,573.75
2022-08-22T15:50:57.718Z,405
2022-08-22T16:00:34.038Z,472.5
2022-08-22T16:10:11.873Z,450
2022-08-22T16:29:26.213Z,427.5
2022-08-22T16:39:02.909Z,292.5
2022-08-22T16:48:39.204Z,219.38
2022-08-22T16:58:15.915Z,185.63
2022-08-22T17:07:52.509Z,163.13
2022-08-22T17:17:29.034Z,151.88
2022-08-22T17:27:06.139Z,129.38
2022-08-22T17:36:42.744Z,84.38
2022-08-22T17:46:18.860Z,73.13
2022-08-22T17:55:55.546Z,56.25
2022-08-22T18:05:32.257Z,28.13
2022-08-22T18:15:08.845Z,16.88
2022-08-22T18:24:45.553Z,5.63
2022-08-22T18:34:22.173Z,0
2022-08-22T18:43:58.420Z,0
2022-08-22T18:53:34.709Z,0
2022-08-22T19:03:11.378Z,0
2022-08-22T19:12:48.256Z,0
2022-08-22T19:22:25.012Z,0
2022-08-22T19:32:01.744Z,0
2022-08-22T20:00:53.564Z,0
2022-08-22T20:20:24.141Z,0
2022-08-22T20:29:42.856Z,0
2022-08-22T20:39:20.224Z,0
2022-08-22T20:48:57.263Z,0
2022-08-22T20:58:34.431Z,0
2022-08-22T21:08:11.160Z,0
2022-08-22T21:17:48.193Z,0
2022-08-22T21:27:25.482Z,0
2022-08-22T21:37:02.319Z,0
2022-08-22T21:56:16.605Z,0
2022-08-22T22:05:53.474Z,0
2022-08-22T22:15:30.431Z,0
2022-08-22T22:25:38.678Z,0
2022-08-22T22:44:21.621Z,0
2022-08-22T22:53:58.646Z,0
2022-08-22T23:03:35.820Z,0
2022-08-22T23:13:12.756Z,0
2022-08-22T23:22:49.908Z,0
2022-08-22T23:32:26.841Z,0
2022-08-22T23:42:03.718Z,0
2022-08-22T23:51:40.696Z,0
